Time;durP1;ratioP1;P1;durP2;ratioP2;P2;SDS_P1;SDS_P2;PMS_P1;PMS_P2;Temp;Humidity;BMP_temperature;BMP_pressure;BME280_temperature;BME280_humidity;BME280_pressure;Samples;Min_cycle;Max_cycle;Signal;HPM_P1;HPM_P2
2021/11/26 00:01:42;;;;;;;147.10;46.28;;;3.40;99.90;;;;;;4963496;28;20047;-71
2021/11/26 00:04:10;;;;;;;165.80;50.65;;;3.40;99.90;;;;;;4948765;28;20053;-69
2021/11/26 00:06:37;;;;;;;158.85;48.97;;;3.40;99.90;;;;;;4945953;28;20099;-68
2021/11/26 00:09:05;;;;;;;165.05;50.75;;;3.40;99.90;;;;;;4944375;28;20046;-70
2021/11/26 00:11:32;;;;;;;166.00;50.42;;;3.40;99.90;;;;;;4963133;28;20071;-68
2021/11/26 00:14:30;;;;;;;161.30;49.75;;;3.40;99.90;;;;;;4932283;28;20049;-68
2021/11/26 00:17:03;;;;;;;159.27;49.47;;;3.30;99.90;;;;;;4957616;28;20086;-68
2021/11/26 00:19:31;;;;;;;154.07;49.55;;;3.40;99.90;;;;;;4912313;28;20130;-67
2021/11/26 00:21:58;;;;;;;158.30;49.03;;;3.30;99.90;;;;;;4944039;28;20071;-69
2021/11/26 00:24:25;;;;;;;146.25;40.55;;;3.30;99.90;;;;;;4959744;28;20212;-67
2021/11/26 00:26:52;;;;;;;154.48;45.83;;;3.30;99.90;;;;;;4958189;28;20150;-67
2021/11/26 00:29:19;;;;;;;144.55;43.97;;;3.30;99.90;;;;;;4945560;28;20669;-68
2021/11/26 00:31:46;;;;;;;147.60;45.97;;;3.30;99.90;;;;;;4931464;28;20054;-69
2021/11/26 00:34:13;;;;;;;137.77;44.20;;;3.30;99.90;;;;;;4966135;28;20137;-67
2021/11/26 00:36:41;;;;;;;130.38;39.78;;;3.30;99.90;;;;;;4948005;28;20062;-69
2021/11/26 00:39:08;;;;;;;114.95;39.83;;;3.30;99.90;;;;;;4946195;28;20065;-70
2021/11/26 00:41:35;;;;;;;127.38;42.05;;;3.30;99.90;;;;;;4961977;28;20046;-68
2021/11/26 00:44:03;;;;;;;117.97;38.40;;;3.30;99.90;;;;;;4977609;28;20043;-69
2021/11/26 00:46:30;;;;;;;115.15;36.92;;;3.30;99.90;;;;;;4960457;28;20534;-70
2021/11/26 00:48:57;;;;;;;119.38;38.38;;;3.30;99.90;;;;;;4957590;28;20051;-69
2021/11/26 00:51:24;;;;;;;120.25;39.30;;;3.30;99.90;;;;;;4980099;28;20122;-70
2021/11/26 00:53:51;;;;;;;115.35;40.00;;;3.40;99.90;;;;;;4967096;28;20431;-71
2021/11/26 00:56:18;;;;;;;129.43;39.92;;;3.40;99.90;;;;;;4962576;28;20057;-71
2021/11/26 00:58:46;;;;;;;117.68;38.08;;;3.40;99.90;;;;;;4950221;28;20054;-67
2021/11/26 01:01:15;;;;;;;111.43;36.50;;;3.40;99.90;;;;;;4946914;28;20171;-67
2021/11/26 01:03:43;;;;;;;111.28;35.00;;;3.40;99.90;;;;;;4963372;28;20059;-70
2021/11/26 01:06:16;;;;;;;109.10;35.07;;;3.40;99.90;;;;;;4949022;28;20058;-70
2021/11/26 01:08:43;;;;;;;100.15;33.72;;;3.30;99.90;;;;;;4961051;28;20060;-67
2021/11/26 01:11:10;;;;;;;111.00;34.90;;;3.30;99.90;;;;;;4961531;28;20051;-70
2021/11/26 01:13:37;;;;;;;102.72;33.83;;;3.40;99.90;;;;;;4944549;28;20057;-69
2021/11/26 01:16:05;;;;;;;104.53;35.83;;;3.40;99.90;;;;;;4962642;28;20109;-69
2021/11/26 01:18:31;;;;;;;105.25;36.55;;;3.50;99.90;;;;;;4957757;28;20058;-68
2021/11/26 01:21:06;;;;;;;115.65;37.85;;;3.50;99.90;;;;;;4963263;28;20054;-68
2021/11/26 01:23:39;;;;;;;99.97;31.95;;;3.50;99.90;;;;;;4947377;28;20058;-67
2021/11/26 01:26:07;;;;;;;89.18;32.55;;;3.50;99.90;;;;;;4960353;28;20138;-67
2021/11/26 01:28:34;;;;;;;108.30;31.95;;;3.40;99.90;;;;;;4943786;28;20073;-69
2021/11/26 01:31:01;;;;;;;102.50;34.35;;;3.40;99.90;;;;;;4961499;28;20504;-71
2021/11/26 01:33:28;;;;;;;101.07;34.17;;;3.50;99.90;;;;;;4940573;28;20137;-69
2021/11/26 01:35:55;;;;;;;91.97;30.55;;;3.50;99.90;;;;;;4959926;28;20146;-69
2021/11/26 01:38:22;;;;;;;86.75;30.00;;;3.50;99.90;;;;;;4959642;28;20581;-70
2021/11/26 01:40:50;;;;;;;99.68;32.22;;;3.50;99.90;;;;;;4973834;28;20051;-68
2021/11/26 01:43:20;;;;;;;85.68;30.08;;;3.50;99.90;;;;;;4963662;28;20081;-68
2021/11/26 01:45:51;;;;;;;91.32;31.45;;;3.40;99.90;;;;;;4947175;28;20043;-70
2021/11/26 01:48:22;;;;;;;78.05;27.58;;;3.40;99.90;;;;;;4970141;28;20057;-69
2021/11/26 01:50:52;;;;;;;84.60;28.05;;;3.40;99.90;;;;;;4958719;28;20106;-69
2021/11/26 01:53:19;;;;;;;96.50;32.50;;;3.40;99.90;;;;;;4960497;28;20086;-69
2021/11/26 01:56:04;;;;;;;94.53;31.05;;;3.40;99.90;;;;;;4945451;28;20137;-71
2021/11/26 01:58:40;;;;;;;92.28;30.55;;;3.40;99.90;;;;;;4948236;28;20054;-70
2021/11/26 02:01:09;;;;;;;100.75;31.95;;;3.40;99.90;;;;;;4965217;28;20599;-71
2021/11/26 02:03:40;;;;;;;83.63;31.08;;;3.40;99.90;;;;;;4947359;28;20312;-68
2021/11/26 02:06:07;;;;;;;108.10;34.33;;;3.40;99.90;;;;;;4960040;28;20195;-67
2021/11/26 02:08:37;;;;;;;96.53;32.85;;;3.40;99.90;;;;;;4964545;28;20297;-68
2021/11/26 02:11:04;;;;;;;99.18;32.80;;;3.40;99.90;;;;;;4948660;28;20129;-67
2021/11/26 02:13:31;;;;;;;107.72;33.72;;;3.40;99.90;;;;;;4967423;28;20054;-67
2021/11/26 02:16:02;;;;;;;100.53;34.42;;;3.30;99.90;;;;;;4967330;28;20113;-69
2021/11/26 02:18:33;;;;;;;93.55;31.13;;;3.30;99.90;;;;;;4938768;28;20077;-67
2021/11/26 02:20:59;;;;;;;95.25;33.20;;;3.30;99.90;;;;;;4967410;28;20129;-68
2021/11/26 02:23:27;;;;;;;99.43;30.95;;;3.30;99.90;;;;;;4964877;28;20612;-70
2021/11/26 02:25:54;;;;;;;91.40;31.10;;;3.30;99.90;;;;;;4965062;28;20169;-69
2021/11/26 02:28:22;;;;;;;100.40;32.17;;;3.30;99.90;;;;;;4960061;28;20516;-67
2021/11/26 02:30:49;;;;;;;94.22;30.95;;;3.30;99.90;;;;;;4946549;28;20169;-70
2021/11/26 02:33:20;;;;;;;91.45;29.70;;;3.30;99.90;;;;;;4964759;28;20280;-67
2021/11/26 02:35:51;;;;;;;83.03;27.90;;;3.30;99.90;;;;;;4964326;28;20061;-69
2021/11/26 02:38:22;;;;;;;81.47;27.83;;;3.30;99.90;;;;;;4945439;28;20500;-68
2021/11/26 02:40:53;;;;;;;81.80;28.00;;;3.30;99.90;;;;;;4944033;28;20053;-68
2021/11/26 02:43:21;;;;;;;81.60;27.20;;;3.20;99.90;;;;;;4985650;28;20053;-69
2021/11/26 02:45:48;;;;;;;78.65;27.45;;;3.20;99.90;;;;;;4945752;28;20424;-71
2021/11/26 02:48:15;;;;;;;75.55;28.33;;;3.30;99.90;;;;;;4963993;28;20294;-68
2021/11/26 02:51:06;;;;;;;;;;;;;;;;;;;;;
2021/11/26 02:53:35;;;;;;;89.95;27.38;;;3.20;99.90;;;;;;4952782;28;20123;-69
2021/11/26 02:56:06;;;;;;;67.95;24.85;;;3.30;99.90;;;;;;4965162;28;20051;-68
2021/11/26 02:58:35;;;;;;;76.75;25.85;;;3.20;99.90;;;;;;4947484;28;20117;-73
2021/11/26 03:01:03;;;;;;;67.40;24.02;;;3.20;99.90;;;;;;4962963;28;20042;-68
2021/11/26 03:03:34;;;;;;;75.90;24.13;;;3.20;99.90;;;;;;4962823;28;20118;-68
2021/11/26 03:06:15;;;;;;;65.77;24.10;;;3.20;99.90;;;;;;4944492;28;20050;-69
2021/11/26 03:08:42;;;;;;;80.00;24.77;;;3.30;99.90;;;;;;4945003;28;20071;-68
2021/11/26 03:11:09;;;;;;;63.03;22.50;;;3.20;99.90;;;;;;4961548;28;20234;-67
2021/11/26 03:13:36;;;;;;;68.55;23.52;;;3.20;99.90;;;;;;4994830;28;20059;-67
2021/11/26 03:16:04;;;;;;;75.60;23.95;;;3.30;99.90;;;;;;4994361;28;20134;-67
2021/11/26 03:18:34;;;;;;;65.00;22.80;;;3.30;99.90;;;;;;4954055;28;20053;-67
2021/11/26 03:21:01;;;;;;;62.83;23.33;;;3.30;99.90;;;;;;4944873;28;20065;-67
2021/11/26 03:23:37;;;;;;;69.20;24.63;;;3.30;99.90;;;;;;4944740;28;20070;-68
2021/11/26 03:26:12;;;;;;;65.57;24.02;;;3.30;99.90;;;;;;4943939;28;20047;-70
2021/11/26 03:28:43;;;;;;;66.13;21.70;;;3.30;99.90;;;;;;4943037;28;20255;-69
2021/11/26 03:31:11;;;;;;;60.25;22.23;;;3.30;99.90;;;;;;4944936;28;20051;-68
2021/11/26 03:33:38;;;;;;;69.10;22.05;;;3.40;99.90;;;;;;4963499;28;20051;-66
2021/11/26 03:36:05;;;;;;;66.18;22.08;;;3.40;99.90;;;;;;4958251;28;20114;-70
2021/11/26 03:38:34;;;;;;;69.10;22.33;;;3.40;99.90;;;;;;4943231;28;20043;-67
2021/11/26 03:41:04;;;;;;;55.08;19.42;;;3.40;99.90;;;;;;4956630;28;20059;-70
2021/11/26 03:43:32;;;;;;;58.88;20.02;;;3.40;99.90;;;;;;4961285;28;20119;-68
2021/11/26 03:45:59;;;;;;;59.55;19.08;;;3.40;99.90;;;;;;4962958;28;20075;-67
2021/11/26 03:48:32;;;;;;;61.30;19.67;;;3.40;99.90;;;;;;4944876;28;20043;-69
2021/11/26 03:51:01;;;;;;;60.78;19.75;;;3.40;99.90;;;;;;4944727;28;20459;-69
2021/11/26 03:53:29;;;;;;;60.00;18.92;;;3.40;99.90;;;;;;4945202;28;20051;-68
2021/11/26 03:55:57;;;;;;;58.47;18.95;;;3.40;99.90;;;;;;4930645;28;20533;-69
2021/11/26 03:58:25;;;;;;;51.92;19.08;;;3.40;99.90;;;;;;4963746;28;20555;-68
2021/11/26 04:00:52;;;;;;;52.55;18.45;;;3.40;99.90;;;;;;4963077;28;20058;-67
2021/11/26 04:03:20;;;;;;;52.88;18.80;;;3.40;99.90;;;;;;4947360;28;20081;-67
2021/11/26 04:05:48;;;;;;;52.85;16.88;;;3.40;99.90;;;;;;4958391;28;20142;-69
2021/11/26 04:08:20;;;;;;;48.20;16.83;;;3.30;99.90;;;;;;4959059;28;20054;-67
2021/11/26 04:10:49;;;;;;;43.67;16.48;;;3.30;99.90;;;;;;4944681;28;20047;-69
2021/11/26 04:13:24;;;;;;;51.10;15.88;;;3.30;99.90;;;;;;4947173;28;20043;-68
2021/11/26 04:16:01;;;;;;;49.65;16.63;;;3.30;99.90;;;;;;4963224;28;20126;-66
2021/11/26 04:18:36;;;;;;;38.10;15.15;;;3.30;99.90;;;;;;4929091;28;20527;-67
2021/11/26 04:21:17;;;;;;;43.35;13.85;;;3.30;99.90;;;;;;4944161;28;20220;-68
2021/11/26 04:23:46;;;;;;;45.22;14.60;;;3.20;99.90;;;;;;4962222;28;20043;-67
2021/11/26 04:26:14;;;;;;;43.50;14.27;;;3.30;99.90;;;;;;4946941;28;20106;-66
2021/11/26 04:28:43;;;;;;;45.47;14.32;;;3.30;99.90;;;;;;4943201;28;20122;-68
2021/11/26 04:31:11;;;;;;;40.90;12.77;;;3.30;99.90;;;;;;4941476;28;20133;-67
2021/11/26 04:33:39;;;;;;;43.45;12.95;;;3.30;99.90;;;;;;4959340;28;20050;-67
2021/11/26 04:36:08;;;;;;;45.97;13.15;;;3.40;99.90;;;;;;4942427;28;20726;-69
2021/11/26 04:38:37;;;;;;;37.95;12.90;;;3.30;99.90;;;;;;4941295;28;20633;-66
2021/11/26 04:41:05;;;;;;;37.60;12.43;;;3.40;99.90;;;;;;4934416;28;20390;-69
2021/11/26 04:43:32;;;;;;;37.40;12.38;;;3.30;99.90;;;;;;4958971;28;20921;-67
2021/11/26 04:46:00;;;;;;;41.50;13.27;;;3.30;99.90;;;;;;4946269;28;20332;-66
2021/11/26 04:48:30;;;;;;;40.47;12.95;;;3.40;99.90;;;;;;4950030;28;20043;-69
2021/11/26 04:51:00;;;;;;;32.40;11.50;;;3.30;99.90;;;;;;4949827;28;20067;-66
2021/11/26 04:53:29;;;;;;;39.63;12.90;;;3.40;99.90;;;;;;4953421;28;20042;-66
2021/11/26 04:56:12;;;;;;;39.00;12.45;;;3.30;99.90;;;;;;4987154;28;20054;-65
2021/11/26 04:58:48;;;;;;;39.55;11.75;;;3.30;99.90;;;;;;4954607;28;20054;-66
2021/11/26 05:01:29;;;;;;;37.28;11.57;;;3.30;99.90;;;;;;4973869;28;20121;-67
2021/11/26 05:03:59;;;;;;;40.92;11.38;;;3.30;99.90;;;;;;4963299;28;20455;-68
2021/11/26 05:06:28;;;;;;;32.05;11.55;;;3.40;99.90;;;;;;4945811;28;20057;-68
2021/11/26 05:08:55;;;;;;;39.15;11.05;;;3.30;99.90;;;;;;4963420;28;20074;-68
2021/11/26 05:11:31;;;;;;;33.85;11.10;;;3.30;99.90;;;;;;4947359;28;20055;-67
2021/11/26 05:14:09;;;;;;;29.52;11.27;;;3.30;99.90;;;;;;4950301;28;20074;-66
2021/11/26 05:16:39;;;;;;;28.88;12.35;;;3.30;99.90;;;;;;4941707;28;20142;-67
2021/11/26 05:19:06;;;;;;;37.80;12.65;;;3.30;99.90;;;;;;4978725;28;20097;-68
2021/11/26 05:21:38;;;;;;;35.85;12.07;;;3.30;99.90;;;;;;4946866;28;20118;-69
2021/11/26 05:24:07;;;;;;;30.75;11.27;;;3.20;99.90;;;;;;4949360;28;20438;-68
2021/11/26 05:26:36;;;;;;;33.97;12.50;;;3.30;99.90;;;;;;4943040;28;20101;-67
2021/11/26 05:29:03;;;;;;;38.78;13.85;;;3.30;99.90;;;;;;4960314;28;20050;-67
2021/11/26 05:31:35;;;;;;;39.05;16.70;;;3.30;99.90;;;;;;4972907;28;20042;-66
2021/11/26 05:34:09;;;;;;;41.88;17.27;;;3.30;99.90;;;;;;4960266;28;20160;-69
2021/11/26 05:36:38;;;;;;;45.97;16.77;;;3.30;99.90;;;;;;4968506;28;20070;-68
2021/11/26 05:39:06;;;;;;;42.20;13.73;;;3.30;99.90;;;;;;4957428;28;20085;-69
2021/11/26 05:41:33;;;;;;;39.22;14.20;;;3.30;99.90;;;;;;4957536;28;20069;-69
2021/11/26 05:44:01;;;;;;;36.28;13.82;;;3.30;99.90;;;;;;4963376;28;20047;-67
2021/11/26 05:46:37;;;;;;;34.60;14.15;;;3.30;99.90;;;;;;4944649;28;20066;-67
2021/11/26 05:49:18;;;;;;;36.17;12.93;;;3.20;99.90;;;;;;4940078;28;20537;-69
2021/11/26 05:51:46;;;;;;;39.60;14.20;;;3.20;99.90;;;;;;4962706;28;20054;-69
2021/11/26 05:54:13;;;;;;;39.97;16.02;;;3.20;99.90;;;;;;4961162;28;20058;-67
2021/11/26 05:56:40;;;;;;;54.10;17.08;;;3.20;99.90;;;;;;4947712;28;20047;-66
2021/11/26 05:59:11;;;;;;;42.72;15.82;;;3.20;99.90;;;;;;4945749;28;20051;-68
2021/11/26 06:01:44;;;;;;;42.42;14.25;;;3.30;99.90;;;;;;4944714;28;20050;-68
2021/11/26 06:04:11;;;;;;;45.10;17.60;;;3.30;99.90;;;;;;4963598;28;20415;-68
2021/11/26 06:06:42;;;;;;;37.47;16.05;;;3.20;99.90;;;;;;4947725;28;20047;-68
2021/11/26 06:09:12;;;;;;;40.15;14.60;;;3.20;99.90;;;;;;4946765;28;20223;-69
2021/11/26 06:11:47;;;;;;;37.90;14.50;;;3.20;99.90;;;;;;4949421;28;20046;-66
2021/11/26 06:14:18;;;;;;;44.92;14.65;;;3.20;99.90;;;;;;4948093;28;20054;-68
2021/11/26 06:17:18;;;;;;;39.88;15.07;;;3.10;99.90;;;;;;4963156;28;20049;-68
2021/11/26 06:19:48;;;;;;;38.13;15.30;;;3.10;99.90;;;;;;4948772;28;20050;-67
2021/11/26 06:22:26;;;;;;;49.85;16.17;;;3.20;99.90;;;;;;4947675;28;20134;-67
2021/11/26 06:24:59;;;;;;;50.38;16.55;;;3.20;99.90;;;;;;4948881;28;20468;-70
2021/11/26 06:27:31;;;;;;;39.90;16.35;;;3.10;99.90;;;;;;4966749;28;20196;-69
2021/11/26 06:30:07;;;;;;;41.78;17.13;;;3.10;99.90;;;;;;4944853;28;20538;-68
2021/11/26 06:32:34;;;;;;;48.97;17.55;;;3.10;99.90;;;;;;4950318;28;20093;-68
2021/11/26 06:35:08;;;;;;;45.95;16.95;;;3.10;99.90;;;;;;4951425;28;20042;-69
2021/11/26 06:37:36;;;;;;;41.92;18.00;;;3.10;99.90;;;;;;4945661;28;20058;-69
2021/11/26 06:40:06;;;;;;;48.72;20.00;;;3.10;99.90;;;;;;4959919;28;20055;-68
2021/11/26 06:42:32;;;;;;;59.10;19.98;;;3.10;99.90;;;;;;4962475;28;20126;-67
2021/11/26 06:45:00;;;;;;;54.85;20.42;;;3.10;99.90;;;;;;4983927;28;20059;-66
2021/11/26 06:50:15;;;;;;;45.42;19.48;;;3.20;99.90;;;;;;4968586;28;20127;-68
2021/11/26 06:52:50;;;;;;;48.10;19.73;;;3.20;99.90;;;;;;4934580;28;20058;-69
2021/11/26 06:55:17;;;;;;;50.25;18.65;;;3.20;99.90;;;;;;4947214;28;20488;-69
2021/11/26 06:57:45;;;;;;;53.80;20.13;;;3.20;99.90;;;;;;4967326;28;20046;-66
2021/11/26 07:00:19;;;;;;;55.58;20.90;;;3.20;99.90;;;;;;4934715;28;20079;-69
2021/11/26 07:02:46;;;;;;;46.95;18.92;;;3.20;99.90;;;;;;4946687;28;20059;-67
2021/11/26 07:05:14;;;;;;;48.72;18.73;;;3.30;99.90;;;;;;4977450;28;20055;-69
2021/11/26 07:07:41;;;;;;;49.10;19.40;;;3.30;99.90;;;;;;4960772;28;20362;-67
2021/11/26 07:10:13;;;;;;;45.45;18.67;;;3.30;99.90;;;;;;4936105;28;20043;-68
2021/11/26 07:12:41;;;;;;;51.00;18.02;;;3.30;99.90;;;;;;4947794;28;20054;-68
2021/11/26 07:15:09;;;;;;;48.20;20.15;;;3.30;99.90;;;;;;4965300;28;20491;-68
2021/11/26 07:17:36;;;;;;;56.75;19.90;;;3.30;99.90;;;;;;4959583;28;20460;-69
2021/11/26 07:20:05;;;;;;;47.55;20.77;;;3.30;99.90;;;;;;4966379;28;20059;-68
2021/11/26 07:22:32;;;;;;;59.20;20.70;;;3.30;99.90;;;;;;4966290;28;20053;-69
2021/11/26 07:24:58;;;;;;;56.15;20.52;;;3.20;99.90;;;;;;4966109;28;20047;-70
2021/11/26 07:27:25;;;;;;;50.30;19.95;;;3.20;99.90;;;;;;4964236;28;20069;-69
2021/11/26 07:29:54;;;;;;;51.70;20.20;;;3.20;99.90;;;;;;4982399;28;20062;-70
2021/11/26 07:32:21;;;;;;;47.42;19.17;;;3.10;99.90;;;;;;4967225;28;20066;-68
2021/11/26 07:34:48;;;;;;;51.80;21.30;;;3.10;99.90;;;;;;4964814;28;20062;-68
2021/11/26 07:37:17;;;;;;;52.90;20.60;;;3.10;99.90;;;;;;4961201;28;20050;-71
2021/11/26 07:39:44;;;;;;;54.33;22.13;;;3.00;99.90;;;;;;4979282;28;20495;-69
2021/11/26 07:42:12;;;;;;;59.28;21.67;;;3.00;99.90;;;;;;4960670;28;20514;-70
2021/11/26 07:44:41;;;;;;;52.30;20.35;;;3.00;99.90;;;;;;4965766;28;20129;-67
2021/11/26 07:47:12;;;;;;;56.58;19.98;;;3.00;99.90;;;;;;4955563;28;20427;-70
2021/11/26 07:49:41;;;;;;;55.47;23.38;;;3.00;99.90;;;;;;4948774;28;20046;-71
2021/11/26 07:52:10;;;;;;;58.63;22.27;;;2.90;99.90;;;;;;4947996;28;21312;-69
2021/11/26 07:54:37;;;;;;;65.47;23.25;;;2.90;99.90;;;;;;4963574;28;20283;-69
2021/11/26 07:57:04;;;;;;;54.92;21.23;;;2.90;99.90;;;;;;4947728;28;20129;-74
2021/11/26 07:59:32;;;;;;;55.30;21.20;;;2.90;99.90;;;;;;4965213;28;20101;-69
2021/11/26 08:01:59;;;;;;;47.92;21.05;;;2.90;99.90;;;;;;4963017;28;20451;-70
2021/11/26 08:04:26;;;;;;;61.15;21.90;;;2.90;99.90;;;;;;4946809;28;20053;-72
2021/11/26 08:06:53;;;;;;;66.90;23.88;;;2.90;99.90;;;;;;4962487;28;20046;-70
2021/11/26 08:09:20;;;;;;;57.75;22.50;;;3.00;99.90;;;;;;4962868;28;20039;-71
2021/11/26 08:11:48;;;;;;;54.92;21.75;;;3.00;99.90;;;;;;4959232;28;20073;-71
2021/11/26 08:14:17;;;;;;;49.67;20.70;;;2.90;99.90;;;;;;4965165;28;20138;-71
2021/11/26 08:16:46;;;;;;;64.85;24.50;;;2.90;99.90;;;;;;4943262;28;20051;-72
2021/11/26 08:19:13;;;;;;;62.55;24.88;;;2.90;99.90;;;;;;4975138;28;20050;-71
2021/11/26 08:21:41;;;;;;;57.92;22.50;;;2.90;99.90;;;;;;4963391;28;20051;-71
2021/11/26 08:24:10;;;;;;;60.47;24.23;;;2.90;99.90;;;;;;4994798;28;20555;-71
2021/11/26 08:26:40;;;;;;;60.08;24.33;;;2.90;99.90;;;;;;4961026;28;20146;-70
2021/11/26 08:29:08;;;;;;;58.50;24.42;;;2.90;99.90;;;;;;4944564;28;20133;-73
2021/11/26 08:31:36;;;;;;;60.97;22.52;;;2.90;99.90;;;;;;4962311;28;20050;-73
2021/11/26 08:34:04;;;;;;;62.92;24.23;;;2.90;99.90;;;;;;4961586;28;20062;-72
2021/11/26 08:36:32;;;;;;;65.90;23.63;;;2.80;99.90;;;;;;4956149;28;20038;-70
2021/11/26 08:38:59;;;;;;;64.22;25.30;;;2.80;99.90;;;;;;4960269;28;20403;-71
2021/11/26 08:41:26;;;;;;;78.65;28.05;;;2.80;99.90;;;;;;4926429;28;20046;-70
2021/11/26 08:43:54;;;;;;;69.03;28.08;;;2.80;99.90;;;;;;4960505;28;21208;-71
2021/11/26 08:46:21;;;;;;;65.90;24.40;;;2.80;99.90;;;;;;4960990;28;20059;-72
2021/11/26 08:48:50;;;;;;;71.20;24.00;;;2.80;99.90;;;;;;4972649;28;20106;-73
2021/11/26 08:51:19;;;;;;;56.42;22.55;;;2.80;99.90;;;;;;4962094;28;20063;-71
2021/11/26 08:53:47;;;;;;;52.97;20.83;;;2.80;99.90;;;;;;4966738;28;20058;-72
2021/11/26 08:56:15;;;;;;;60.63;22.13;;;2.70;99.90;;;;;;4963548;28;20302;-70
2021/11/26 08:58:46;;;;;;;61.40;23.00;;;2.70;99.90;;;;;;4963581;28;20059;-71
2021/11/26 09:01:15;;;;;;;61.42;22.98;;;2.80;99.90;;;;;;4944147;28;20042;-72
2021/11/26 09:03:47;;;;;;;56.30;22.95;;;2.80;99.90;;;;;;4942247;28;20105;-69
2021/11/26 09:06:16;;;;;;;61.65;22.70;;;2.80;99.90;;;;;;4958023;28;20354;-72
2021/11/26 09:08:43;;;;;;;55.90;20.00;;;2.70;99.90;;;;;;4967336;28;20039;-71
2021/11/26 09:11:11;;;;;;;61.30;22.13;;;2.70;99.90;;;;;;4976558;28;20503;-72
2021/11/26 09:13:38;;;;;;;62.60;24.42;;;2.70;99.90;;;;;;4978167;28;20047;-71
2021/11/26 09:16:05;;;;;;;61.72;21.30;;;2.70;99.90;;;;;;4960791;28;20141;-72
2021/11/26 09:18:32;;;;;;;58.58;22.05;;;2.60;99.90;;;;;;4959718;28;20054;-72
2021/11/26 09:20:59;;;;;;;61.33;22.65;;;2.60;99.90;;;;;;4960454;28;20058;-70
2021/11/26 09:23:27;;;;;;;57.28;20.77;;;2.60;99.90;;;;;;4958124;28;20515;-71
2021/11/26 09:25:55;;;;;;;61.72;21.48;;;2.50;99.90;;;;;;4958239;28;20214;-72
2021/11/26 09:28:23;;;;;;;66.80;23.85;;;2.50;99.90;;;;;;4958156;28;20051;-70
2021/11/26 09:30:51;;;;;;;68.15;23.20;;;2.60;99.90;;;;;;4959368;28;20065;-71
2021/11/26 09:33:20;;;;;;;58.97;21.38;;;2.60;99.90;;;;;;4959834;28;20066;-71
2021/11/26 09:35:47;;;;;;;60.65;23.63;;;2.60;99.90;;;;;;4941944;28;20065;-70
2021/11/26 09:38:14;;;;;;;55.05;21.85;;;2.50;99.90;;;;;;4956357;28;20108;-71
2021/11/26 09:40:44;;;;;;;62.08;21.90;;;2.60;99.90;;;;;;4956254;28;20097;-68
2021/11/26 09:43:12;;;;;;;64.60;20.60;;;2.60;99.90;;;;;;4959951;28;20145;-72
2021/11/26 09:45:39;;;;;;;59.28;22.15;;;2.70;99.90;;;;;;4961136;28;20385;-72
2021/11/26 09:48:06;;;;;;;64.80;23.73;;;2.60;99.90;;;;;;4954627;28;20081;-71
2021/11/26 09:50:35;;;;;;;72.60;25.08;;;2.60;99.90;;;;;;4958769;28;20054;-72
2021/11/26 09:53:22;;;;;;;62.13;23.05;;;2.60;99.90;;;;;;4963362;28;20081;-70
2021/11/26 09:55:55;;;;;;;61.70;22.77;;;2.50;99.90;;;;;;4944767;28;20317;-70
2021/11/26 09:58:24;;;;;;;73.03;25.08;;;2.40;99.90;;;;;;4958105;28;20106;-71
2021/11/26 10:00:53;;;;;;;66.65;24.73;;;2.40;99.90;;;;;;4961949;28;20058;-70
2021/11/26 10:03:22;;;;;;;69.25;26.38;;;2.40;99.90;;;;;;4926830;28;20463;-70
2021/11/26 10:05:49;;;;;;;66.20;24.10;;;2.40;99.90;;;;;;4957269;28;20073;-71
2021/11/26 10:08:23;;;;;;;73.65;25.48;;;2.40;99.90;;;;;;4956000;28;20065;-70
2021/11/26 10:10:59;;;;;;;74.07;25.23;;;2.40;99.90;;;;;;4943435;28;20039;-70
2021/11/26 10:13:30;;;;;;;75.55;26.63;;;2.40;99.90;;;;;;4959430;28;20126;-70
2021/11/26 10:16:08;;;;;;;75.82;24.33;;;2.40;99.90;;;;;;4960562;28;20458;-70
2021/11/26 10:18:35;;;;;;;73.82;26.70;;;2.40;99.90;;;;;;4955709;28;20177;-70
2021/11/26 10:21:12;;;;;;;66.28;24.60;;;2.40;99.90;;;;;;4946417;28;20050;-71
2021/11/26 10:23:52;;;;;;;54.92;23.75;;;2.40;99.90;;;;;;4946700;28;20943;-71
2021/11/26 10:26:21;;;;;;;52.88;21.73;;;2.50;99.90;;;;;;4961915;28;20082;-70
2021/11/26 10:28:55;;;;;;;60.63;21.92;;;2.40;99.90;;;;;;4943006;28;20069;-71
2021/11/26 10:31:28;;;;;;;56.20;21.40;;;2.50;99.90;;;;;;4962776;28;20496;-73
2021/11/26 10:34:09;;;;;;;48.90;18.80;;;2.50;99.90;;;;;;4963987;28;20553;-72
2021/11/26 10:36:52;;;;;;;55.83;21.13;;;2.60;99.90;;;;;;4959806;28;20457;-72
2021/11/26 10:39:22;;;;;;;49.70;18.27;;;2.70;99.90;;;;;;4962735;28;20551;-70
2021/11/26 10:41:58;;;;;;;43.53;19.23;;;2.70;99.90;;;;;;4943904;28;20591;-70
2021/11/26 10:47:34;;;;;;;33.58;15.50;;;2.80;99.90;;;;;;4949923;28;20111;-70
2021/11/26 10:50:33;;;;;;;27.00;13.52;;;2.90;99.90;;;;;;4989161;28;20138;-70
2021/11/26 10:58:50;;;;;;;19.92;11.18;;;3.00;99.90;;;;;;4920560;29;20075;-72
2021/11/26 11:01:17;;;;;;;21.73;12.38;;;3.10;99.90;;;;;;4918838;29;20334;-70
2021/11/26 11:03:46;;;;;;;24.45;16.02;;;3.20;99.90;;;;;;4931681;28;20051;-69
2021/11/26 11:06:24;;;;;;;25.90;11.07;;;3.20;99.90;;;;;;4973138;28;20054;-71
2021/11/26 11:09:06;;;;;;;17.65;11.77;;;3.20;99.90;;;;;;4960419;28;20244;-71
2021/11/26 11:11:34;;;;;;;14.20;9.10;;;3.20;99.90;;;;;;4962106;28;20094;-70
2021/11/26 11:14:13;;;;;;;10.68;7.55;;;3.20;99.90;;;;;;4962208;28;20142;-71
2021/11/26 11:16:51;;;;;;;12.05;6.93;;;3.10;99.90;;;;;;4963166;28;20400;-71
2021/11/26 11:19:18;;;;;;;11.60;6.47;;;3.10;99.90;;;;;;4962398;28;20101;-72
2021/11/26 11:21:46;;;;;;;14.70;8.10;;;3.00;99.90;;;;;;4965385;28;20072;-70
2021/11/26 11:24:15;;;;;;;11.40;7.50;;;3.00;99.90;;;;;;4944247;28;20048;-71
2021/11/26 11:26:47;;;;;;;10.57;7.38;;;3.00;99.90;;;;;;4957951;28;20147;-72
2021/11/26 11:29:17;;;;;;;11.77;7.28;;;3.00;99.90;;;;;;4940640;28;20583;-71
2021/11/26 11:31:44;;;;;;;10.48;7.28;;;2.90;99.90;;;;;;4939134;28;20047;-70
2021/11/26 11:34:13;;;;;;;10.82;6.53;;;3.00;99.90;;;;;;4914975;29;20039;-72
2021/11/26 11:36:42;;;;;;;9.10;6.13;;;2.90;99.90;;;;;;4909569;29;20143;-71
2021/11/26 11:39:10;;;;;;;10.02;5.70;;;2.80;99.90;;;;;;4942674;29;20059;-72
2021/11/26 11:41:47;;;;;;;9.60;5.35;;;2.80;99.90;;;;;;4948163;28;20424;-70
2021/11/26 11:44:36;;;;;;;10.38;6.80;;;2.80;99.90;;;;;;4955723;28;20548;-72
2021/11/26 11:47:19;;;;;;;7.68;5.22;;;2.80;99.90;;;;;;4958349;28;20039;-71
2021/11/26 11:49:47;;;;;;;8.45;5.60;;;2.80;99.90;;;;;;4962898;28;20650;-71
2021/11/26 11:52:15;;;;;;;9.32;6.95;;;2.90;99.90;;;;;;4977625;28;20055;-72
2021/11/26 11:54:59;;;;;;;7.03;5.10;;;2.90;99.90;;;;;;4992473;28;20241;-71
2021/11/26 11:57:28;;;;;;;8.60;5.40;;;2.90;99.90;;;;;;4961868;28;20881;-71
2021/11/26 12:00:16;;;;;;;10.55;7.05;;;2.80;99.90;;;;;;4962087;28;20257;-71
2021/11/26 12:02:45;;;;;;;11.65;7.93;;;2.90;99.90;;;;;;4961561;28;20167;-70
2021/11/26 12:05:24;;;;;;;8.38;5.78;;;2.90;99.90;;;;;;4945597;28;20134;-70
2021/11/26 12:08:07;;;;;;;15.52;8.18;;;3.00;99.90;;;;;;4958571;28;20161;-70
2021/11/26 12:11:04;;;;;;;8.25;5.20;;;3.00;99.90;;;;;;4962520;28;20054;-71
2021/11/26 12:13:35;;;;;;;17.83;8.20;;;2.90;99.90;;;;;;4950684;28;20047;-71
2021/11/26 12:16:07;;;;;;;13.55;6.22;;;2.90;99.90;;;;;;4928197;28;20492;-73
2021/11/26 12:18:43;;;;;;;9.20;6.03;;;3.00;99.90;;;;;;4943525;28;20054;-71
2021/11/26 12:21:12;;;;;;;12.50;8.05;;;3.00;99.90;;;;;;4962335;28;20405;-73
2021/11/26 12:24:02;;;;;;;65.28;28.08;;;3.10;99.90;;;;;;4961419;28;20530;-71
2021/11/26 12:26:55;;;;;;;17.98;10.10;;;3.10;99.90;;;;;;4959949;28;20218;-72
2021/11/26 12:29:35;;;;;;;9.23;6.03;;;3.20;99.90;;;;;;4959542;28;20142;-70
2021/11/26 12:32:18;;;;;;;10.82;6.20;;;3.20;99.90;;;;;;4963725;28;20515;-70
2021/11/26 12:34:51;;;;;;;11.30;6.28;;;3.20;99.90;;;;;;4959390;28;20055;-69
2021/11/26 12:37:25;;;;;;;14.73;8.52;;;3.20;99.90;;;;;;4957616;28;20058;-70
2021/11/26 12:39:55;;;;;;;11.27;6.05;;;3.20;99.90;;;;;;4963320;28;20051;-72
2021/11/26 12:42:23;;;;;;;26.23;14.57;;;3.20;99.90;;;;;;4940900;28;20053;-69
2021/11/26 12:45:00;;;;;;;14.95;9.43;;;3.30;99.90;;;;;;4961546;28;20145;-71
2021/11/26 12:48:00;;;;;;;13.15;6.50;;;3.30;99.90;;;;;;4962158;28;20129;-68
2021/11/26 12:53:16;;;;;;;14.55;7.38;;;3.30;99.90;;;;;;4974919;28;20051;-70
2021/11/26 12:55:52;;;;;;;17.48;6.93;;;3.40;99.90;;;;;;4962843;28;20050;-72
2021/11/26 12:58:20;;;;;;;10.57;5.97;;;3.40;99.90;;;;;;4962332;28;20416;-69
2021/11/26 13:01:03;;;;;;;14.57;9.10;;;3.40;99.90;;;;;;4963036;28;20506;-70
2021/11/26 13:03:40;;;;;;;13.48;8.00;;;3.40;99.90;;;;;;4965511;28;20633;-72
2021/11/26 13:06:06;;;;;;;12.52;6.60;;;3.40;99.90;;;;;;4958381;28;20066;-71
2021/11/26 13:08:34;;;;;;;10.57;7.05;;;3.40;99.90;;;;;;4947439;28;20141;-69
2021/11/26 13:11:03;;;;;;;8.88;5.35;;;3.40;99.90;;;;;;4966537;28;20167;-70